createdAt,value
2023-02-11T00:01:08.193Z,99521.28
2023-02-11T00:03:37.340Z,99520.56
2023-02-11T00:06:09.336Z,99511.91
2023-02-11T00:08:39.433Z,99512.09
2023-02-11T00:11:07.852Z,99511.03
2023-02-11T00:13:35.980Z,99506.03
2023-02-11T00:16:08.885Z,99506.28
2023-02-11T00:18:37.534Z,99508.69
2023-02-11T00:21:09.815Z,99501.78
2023-02-11T00:23:39.464Z,99504.34
2023-02-11T00:26:14.370Z,99503.63
2023-02-11T00:28:42.497Z,99488.69
2023-02-11T00:31:10.950Z,99499.56
2023-02-11T00:33:39.293Z,99500.19
2023-02-11T00:36:13.405Z,99493.22
2023-02-11T00:38:44.573Z,99474.50
2023-02-11T00:41:13.169Z,99487.00
2023-02-11T00:43:41.811Z,99492.88
2023-02-11T00:46:10.826Z,99485.78
2023-02-11T00:48:39.201Z,99363.56
2023-02-11T00:51:08.006Z,99493.06
2023-02-11T00:53:36.302Z,99462.50
2023-02-11T00:56:06.818Z,99481.13
2023-02-11T00:58:35.060Z,99476.88
2023-02-11T01:01:03.660Z,99478.75
2023-02-11T01:03:32.124Z,99479.09
2023-02-11T01:06:00.374Z,99472.75
2023-02-11T01:08:29.114Z,99493.25
2023-02-11T01:10:59.888Z,99466.63
2023-02-11T01:13:30.474Z,99424.44
2023-02-11T01:15:58.771Z,99459.66
2023-02-11T01:18:27.258Z,99454.13
2023-02-11T01:20:55.538Z,99448.88
2023-02-11T01:23:23.697Z,99446.25
2023-02-11T01:25:52.422Z,99469.22
2023-02-11T01:28:22.704Z,99433.75
2023-02-11T01:30:52.628Z,99419.53
2023-02-11T01:33:21.108Z,99423.34
2023-02-11T01:35:49.714Z,99424.84
2023-02-11T01:38:20.233Z,99419.38
2023-02-11T01:40:49.849Z,99420.13
2023-02-11T01:43:18.168Z,99415.34
2023-02-11T01:46:00.868Z,99410.44
2023-02-11T01:48:31.984Z,99382.91
2023-02-11T01:51:04.207Z,99401.97
2023-02-11T01:53:51.237Z,99407.88
2023-02-11T01:56:38.869Z,99400.75
2023-02-11T01:59:14.819Z,99399.94
2023-02-11T02:01:50.372Z,99409.34
2023-02-11T02:04:20.574Z,99403.19
2023-02-11T02:06:56.063Z,99406.19
2023-02-11T02:09:26.937Z,99405.75
2023-02-11T02:11:55.502Z,99380.66
2023-02-11T02:14:23.710Z,99402.91
2023-02-11T02:16:53.440Z,99394.34
2023-02-11T02:20:03.210Z,99394.34
2023-02-11T02:23:00.882Z,99393.13
2023-02-11T02:25:54.787Z,99392.41
2023-02-11T02:28:52.125Z,99340.63
2023-02-11T02:31:38.656Z,99382.16
2023-02-11T02:34:16.237Z,99374.78
2023-02-11T02:36:53.280Z,99373.88
2023-02-11T02:39:25.600Z,99373.69
2023-02-11T02:41:56.766Z,99371.13
2023-02-11T02:44:25.434Z,99371.13
2023-02-11T02:46:53.604Z,99373.78
2023-02-11T02:49:23.333Z,99328.09
2023-02-11T02:52:08.499Z,99372.56
2023-02-11T02:55:10.164Z,99366.09
2023-02-11T02:57:50.255Z,99360.97
2023-02-11T03:00:26.427Z,99364.00
2023-02-11T03:03:06.885Z,99359.22
2023-02-11T03:05:49.314Z,99370.00
2023-02-11T03:08:24.402Z,99357.66
2023-02-11T03:10:54.825Z,99337.00
2023-02-11T03:13:28.194Z,99362.78
2023-02-11T03:15:59.171Z,99354.31
2023-02-11T03:18:30.199Z,99347.44
2023-02-11T03:21:01.283Z,99354.56
2023-02-11T03:23:32.186Z,99359.97
2023-02-11T03:26:05.284Z,99344.09
2023-02-11T03:28:40.401Z,99357.31
2023-02-11T03:31:13.863Z,99347.78
2023-02-11T03:33:52.268Z,99351.66
2023-02-11T03:36:28.336Z,99327.41
2023-02-11T03:38:59.924Z,99284.28
2023-02-11T03:41:28.150Z,99339.41
2023-02-11T03:43:58.977Z,99341.31
2023-02-11T03:46:32.654Z,99334.00
2023-02-11T03:49:06.027Z,99330.38
2023-02-11T03:51:37.911Z,99272.59
2023-02-11T03:54:12.206Z,99333.41
2023-02-11T03:56:46.056Z,99329.16
2023-02-11T03:59:14.258Z,99325.63
2023-02-11T04:01:42.467Z,99333.50
2023-02-11T04:04:10.786Z,99334.72
2023-02-11T04:06:40.426Z,99213.44
2023-02-11T04:09:09.016Z,99322.28
2023-02-11T04:11:37.112Z,99283.47
2023-02-11T04:14:05.478Z,99326.09
2023-02-11T04:16:33.619Z,99327.69
2023-02-11T04:19:02.072Z,99324.31
2023-02-11T04:21:30.267Z,99318.13
2023-02-11T04:23:59.812Z,99318.41
2023-02-11T04:26:27.944Z,99311.09
2023-02-11T04:28:56.054Z,99310.34
2023-02-11T04:31:24.392Z,99277.81
2023-02-11T04:33:52.570Z,99158.91
2023-02-11T04:36:20.684Z,99302.63
2023-02-11T04:38:48.809Z,99304.00
2023-02-11T04:41:18.313Z,99286.38
2023-02-11T04:43:46.451Z,99248.19
2023-02-11T04:46:14.612Z,99304.91
2023-02-11T04:48:42.751Z,99294.69
2023-02-11T04:51:10.915Z,99286.91
2023-02-11T04:53:39.045Z,99243.78
2023-02-11T04:56:07.518Z,99283.13
2023-02-11T04:58:37.096Z,99269.19
2023-02-11T05:01:09.103Z,99283.38
2023-02-11T05:03:37.375Z,99242.81
2023-02-11T05:06:06.420Z,99279.69
2023-02-11T05:08:34.680Z,99270.16
2023-02-11T05:11:03.235Z,99270.50
2023-02-11T05:13:31.666Z,99268.94
2023-02-11T05:16:01.413Z,99260.81
2023-02-11T05:18:29.560Z,99258.97
2023-02-11T05:20:57.776Z,99271.91
2023-02-11T05:23:25.925Z,99267.53
2023-02-11T05:25:54.137Z,99264.31
2023-02-11T05:28:22.290Z,99080.97
2023-02-11T05:30:50.431Z,99277.31
2023-02-11T05:33:20.081Z,99254.25
2023-02-11T05:35:48.441Z,99238.84
2023-02-11T05:38:16.824Z,99269.88
2023-02-11T05:40:45.389Z,99267.44
2023-02-11T05:43:13.545Z,99268.66
2023-02-11T05:45:41.684Z,99269.69
2023-02-11T05:48:10.054Z,99268.81
2023-02-11T05:50:39.652Z,99243.06
2023-02-11T05:53:08.129Z,99267.88
2023-02-11T05:55:36.486Z,99268.28
2023-02-11T05:58:04.902Z,99272.53
2023-02-11T06:00:33.024Z,99273.69
2023-02-11T06:03:01.261Z,99232.25
2023-02-11T06:05:29.369Z,99274.13
2023-02-11T06:07:59.262Z,99279.50
2023-02-11T06:10:27.435Z,99243.97
2023-02-11T06:12:55.571Z,99271.63
2023-02-11T06:15:23.694Z,99268.41
2023-02-11T06:17:51.861Z,99259.31
2023-02-11T06:20:20.053Z,99254.53
2023-02-11T06:22:48.359Z,99229.22
2023-02-11T06:25:17.895Z,99255.31
2023-02-11T06:27:45.995Z,99226.22
2023-02-11T06:30:15.056Z,99254.69
2023-02-11T06:32:45.242Z,99240.69
2023-02-11T06:35:14.480Z,99180.88
2023-02-11T06:37:43.359Z,99240.06
2023-02-11T06:40:12.685Z,99055.25
2023-02-11T06:42:42.927Z,99238.56
2023-02-11T06:45:13.314Z,99248.03
2023-02-11T06:47:42.132Z,99234.50
2023-02-11T06:50:13.892Z,99242.38
2023-02-11T06:52:42.473Z,99247.41
2023-02-11T06:55:10.665Z,99248.88
2023-02-11T06:57:38.843Z,99256.25
2023-02-11T07:00:10.286Z,99248.22
2023-02-11T07:02:38.424Z,99236.38
2023-02-11T07:05:07.930Z,99256.31
2023-02-11T07:07:36.232Z,99193.16
2023-02-11T07:10:05.944Z,99252.56
2023-02-11T07:12:34.188Z,99249.50
2023-02-11T07:15:02.761Z,99196.91
2023-02-11T07:17:32.267Z,99257.16
2023-02-11T07:20:00.371Z,99247.16
2023-02-11T07:22:28.853Z,99249.66
2023-02-11T07:24:56.996Z,99250.63
2023-02-11T07:27:25.142Z,99256.66
2023-02-11T07:29:53.223Z,99254.78
2023-02-11T07:32:21.903Z,99252.50
2023-02-11T07:34:51.565Z,99230.53
2023-02-11T07:37:19.920Z,99239.50
2023-02-11T07:39:48.090Z,99252.63
2023-02-11T07:42:16.617Z,99251.53
2023-02-11T07:44:45.064Z,99254.19
2023-02-11T07:47:14.880Z,99186.50
2023-02-11T07:49:43.087Z,99254.03
2023-02-11T07:52:12.710Z,99085.84
2023-02-11T07:54:40.884Z,99240.63
2023-02-11T07:57:09.057Z,99232.56
2023-02-11T07:59:37.195Z,99232.81
2023-02-11T08:02:05.368Z,99241.75
2023-02-11T08:04:33.540Z,99231.88
2023-02-11T08:07:01.694Z,99195.25
2023-02-11T08:09:33.463Z,99234.25
2023-02-11T08:12:02.897Z,99234.16
2023-02-11T08:14:32.857Z,99234.97
2023-02-11T08:17:00.951Z,99245.69
2023-02-11T08:19:29.119Z,99248.81
2023-02-11T08:21:58.533Z,99184.44
2023-02-11T08:24:26.662Z,99246.47
2023-02-11T08:26:56.355Z,99042.13
2023-02-11T08:29:24.541Z,99215.00
2023-02-11T08:31:52.737Z,99192.47
2023-02-11T08:34:21.138Z,99233.75
2023-02-11T08:36:49.799Z,99233.22
2023-02-11T08:39:20.755Z,99181.22
2023-02-11T08:41:50.673Z,99237.59
2023-02-11T08:44:20.764Z,99238.41
2023-02-11T08:46:49.808Z,99240.16
2023-02-11T08:49:18.202Z,99231.31
2023-02-11T08:51:47.310Z,99232.50
2023-02-11T08:54:16.433Z,99227.09
2023-02-11T08:56:45.195Z,99238.91
2023-02-11T08:59:17.886Z,99192.84
2023-02-11T09:01:47.922Z,99223.69
2023-02-11T09:04:16.196Z,99226.31
2023-02-11T09:06:44.715Z,99215.19
2023-02-11T09:09:14.767Z,99231.59
2023-02-11T09:11:44.414Z,99221.31
2023-02-11T09:14:19.584Z,99192.25
2023-02-11T09:16:49.923Z,99208.91
2023-02-11T09:19:19.077Z,99188.66
2023-02-11T09:21:47.707Z,99216.84
2023-02-11T09:24:15.844Z,99204.16
2023-02-11T09:26:44.690Z,99205.69
2023-02-11T09:29:13.067Z,99216.22
2023-02-11T09:31:41.327Z,99189.84
2023-02-11T09:34:12.854Z,99146.16
2023-02-11T09:36:42.282Z,99202.69
2023-02-11T09:39:14.536Z,99196.13
2023-02-11T09:42:22.066Z,99193.91
2023-02-11T09:44:51.039Z,99195.00
2023-02-11T09:47:26.926Z,99204.34
2023-02-11T09:50:01.386Z,99195.03
2023-02-11T09:52:38.546Z,99191.97
2023-02-11T09:55:18.655Z,99185.88
2023-02-11T09:57:46.871Z,99180.94
2023-02-11T10:00:22.250Z,99179.41
2023-02-11T10:03:26.306Z,99162.47
2023-02-11T10:06:15.930Z,99160.75
2023-02-11T10:08:57.947Z,99154.44
2023-02-11T10:11:33.726Z,99174.03
2023-02-11T10:14:12.922Z,99160.69
2023-02-11T10:16:56.089Z,99175.66
2023-02-11T10:19:37.567Z,99164.25
2023-02-11T10:22:13.564Z,99154.81
2023-02-11T10:24:45.473Z,99128.94
2023-02-11T10:27:19.158Z,99141.00
2023-02-11T10:29:53.717Z,99135.22
2023-02-11T10:32:32.184Z,99137.91
2023-02-11T10:35:05.064Z,99069.59
2023-02-11T10:37:34.663Z,99104.34
2023-02-11T10:40:02.741Z,99122.22
2023-02-11T10:42:31.687Z,99098.00
2023-02-11T10:45:03.782Z,99113.94
2023-02-11T10:47:37.678Z,99102.31
2023-02-11T10:50:20.460Z,99095.03
2023-02-11T10:52:50.317Z,99104.34
2023-02-11T10:55:21.049Z,99080.19
2023-02-11T10:57:56.913Z,99097.00
2023-02-11T11:00:34.322Z,98977.50
2023-02-11T11:03:03.920Z,99078.50
2023-02-11T11:05:34.331Z,99075.19
2023-02-11T11:08:06.882Z,99081.53
2023-02-11T11:10:44.470Z,99086.06
2023-02-11T11:13:29.994Z,99059.03
2023-02-11T11:16:26.569Z,99082.53
2023-02-11T11:19:15.359Z,99079.09
2023-02-11T11:21:45.100Z,99076.66
2023-02-11T11:24:20.938Z,99060.34
2023-02-11T11:26:51.092Z,99070.66
2023-02-11T11:29:21.724Z,99059.09
2023-02-11T11:31:53.415Z,99050.81
2023-02-11T11:34:28.140Z,99034.50
2023-02-11T11:36:57.592Z,99029.38
2023-02-11T11:39:31.034Z,99024.38
2023-02-11T11:42:01.232Z,99021.03
2023-02-11T11:44:32.702Z,99023.69
2023-02-11T11:47:21.985Z,98980.34
2023-02-11T11:49:58.025Z,98857.56
2023-02-11T11:52:36.821Z,99019.38
2023-02-11T11:55:13.217Z,99016.94
2023-02-11T11:57:41.847Z,98939.56
2023-02-11T12:00:18.148Z,98995.69
2023-02-11T12:03:25.059Z,98982.78
2023-02-11T12:06:05.616Z,98983.88
2023-02-11T12:08:44.086Z,98947.41
2023-02-11T12:11:25.346Z,98863.81
2023-02-11T12:14:09.741Z,98978.13
2023-02-11T12:16:49.114Z,98860.41
2023-02-11T12:19:42.288Z,98984.31
2023-02-11T12:22:13.612Z,98969.53
2023-02-11T12:24:57.726Z,98949.59
2023-02-11T12:27:41.198Z,98948.75
2023-02-11T12:30:23.232Z,98935.69
2023-02-11T12:33:02.088Z,98942.72
2023-02-11T12:35:37.287Z,98943.56
2023-02-11T12:38:32.415Z,98940.06
2023-02-11T12:41:19.120Z,98921.78
2023-02-11T12:43:47.708Z,98915.69
2023-02-11T12:46:36.017Z,98832.03
2023-02-11T12:49:34.134Z,98920.03
2023-02-11T12:52:24.827Z,98919.16
2023-02-11T12:54:59.485Z,98896.53
2023-02-11T12:57:29.747Z,98895.59
2023-02-11T13:00:06.140Z,98839.78
2023-02-11T13:02:48.833Z,98891.03
2023-02-11T13:05:26.468Z,98855.19
2023-02-11T13:08:05.182Z,98873.41
2023-02-11T13:10:37.045Z,98869.78
2023-02-11T13:13:20.442Z,98860.03
2023-02-11T13:15:55.285Z,98854.78
2023-02-11T13:18:48.308Z,98851.22
2023-02-11T13:21:46.680Z,98829.22
2023-02-11T13:24:23.620Z,98850.72
2023-02-11T13:27:01.701Z,98840.72
2023-02-11T13:29:44.065Z,98829.88
2023-02-11T13:32:15.925Z,98837.41
2023-02-11T13:34:59.039Z,98844.84
2023-02-11T13:37:32.119Z,98859.16
2023-02-11T13:40:02.799Z,98845.63
2023-02-11T13:42:32.400Z,98837.47
2023-02-11T13:45:00.826Z,98831.09
2023-02-11T13:47:34.185Z,98840.38
2023-02-11T13:50:06.957Z,98816.56
2023-02-11T13:52:38.082Z,98789.94
2023-02-11T13:55:16.099Z,98839.78
2023-02-11T13:57:44.320Z,98842.69
2023-02-11T14:00:48.883Z,98855.06
2023-02-11T14:03:57.574Z,98871.75
2023-02-11T14:06:46.100Z,98864.81
2023-02-11T14:09:38.280Z,98866.50
2023-02-11T14:12:26.413Z,98843.63
2023-02-11T14:15:06.010Z,98853.94
2023-02-11T14:17:36.007Z,98841.81
2023-02-11T14:20:26.719Z,98855.00
2023-02-11T14:22:55.242Z,98861.63
2023-02-11T14:25:26.485Z,98859.59
2023-02-11T14:27:57.434Z,98864.84
2023-02-11T14:30:36.165Z,98852.03
2023-02-11T14:33:21.769Z,98858.38
2023-02-11T14:36:02.023Z,98834.25
2023-02-11T14:38:39.747Z,98843.13
2023-02-11T14:41:12.121Z,98852.84
2023-02-11T14:43:43.324Z,98853.78
2023-02-11T14:46:11.616Z,98851.19
2023-02-11T14:48:44.598Z,98847.66
2023-02-11T14:51:17.717Z,98847.59
2023-02-11T14:53:49.224Z,98851.97
2023-02-11T14:56:22.862Z,98858.94
2023-02-11T14:58:51.988Z,98851.13
2023-02-11T15:01:30.244Z,98833.78
2023-02-11T15:04:00.622Z,98847.69
2023-02-11T15:06:33.204Z,98846.84
2023-02-11T15:09:05.286Z,98844.28
2023-02-11T15:11:36.388Z,98845.16
2023-02-11T15:14:10.964Z,98840.75
2023-02-11T15:16:44.168Z,98848.53
2023-02-11T15:19:22.554Z,98785.81
2023-02-11T15:21:53.755Z,98825.03
2023-02-11T15:24:25.820Z,98845.91
2023-02-11T15:27:02.059Z,98831.03
2023-02-11T15:29:37.135Z,98825.78
2023-02-11T15:32:13.727Z,98844.03
2023-02-11T15:34:42.410Z,98843.94
2023-02-11T15:37:15.766Z,98847.34
2023-02-11T15:39:44.928Z,98851.63
2023-02-11T15:42:22.547Z,98854.19
2023-02-11T15:45:08.649Z,98841.91
2023-02-11T15:47:37.264Z,98869.75
2023-02-11T15:50:06.964Z,98871.47
2023-02-11T15:52:37.075Z,98868.88
2023-02-11T15:55:06.768Z,98862.75
2023-02-11T15:57:36.917Z,98869.56
2023-02-11T16:00:07.581Z,98864.25
2023-02-11T16:02:45.827Z,98868.59
2023-02-11T16:05:29.593Z,98708.03
2023-02-11T16:08:00.412Z,98864.00
2023-02-11T16:10:32.054Z,98850.81
2023-02-11T16:13:20.344Z,98868.22
2023-02-11T16:15:52.781Z,98858.53
2023-02-11T16:18:38.311Z,98870.66
2023-02-11T16:21:14.876Z,98873.31
2023-02-11T16:23:50.708Z,98884.34
2023-02-11T16:26:26.528Z,98870.31
2023-02-11T16:28:55.278Z,98877.13
2023-02-11T16:31:23.884Z,98863.94
2023-02-11T16:33:52.298Z,98872.44
2023-02-11T16:36:20.474Z,98862.66
2023-02-11T16:38:50.109Z,98798.16
2023-02-11T16:41:18.255Z,98868.75
2023-02-11T16:43:46.592Z,98862.56
2023-02-11T16:46:17.035Z,98864.34
2023-02-11T16:48:45.820Z,98870.00
2023-02-11T16:51:14.448Z,98862.88
2023-02-11T16:53:42.660Z,98851.25
2023-02-11T16:56:17.191Z,98858.91
2023-02-11T16:58:46.585Z,98857.31
2023-02-11T17:01:14.852Z,98854.72
2023-02-11T17:03:43.843Z,98842.72
2023-02-11T17:06:13.690Z,98846.84
2023-02-11T17:08:42.664Z,98850.72
2023-02-11T17:11:10.890Z,98828.63
2023-02-11T17:13:42.053Z,98783.06
2023-02-11T17:16:17.232Z,98844.06
2023-02-11T17:18:45.502Z,98844.84
2023-02-11T17:21:13.887Z,98836.00
2023-02-11T17:23:42.607Z,98831.84
2023-02-11T17:26:10.887Z,98830.97
2023-02-11T17:28:40.538Z,98721.66
2023-02-11T17:31:10.445Z,98830.78
2023-02-11T17:33:39.112Z,98792.97
2023-02-11T17:36:08.842Z,98726.84
2023-02-11T17:38:38.370Z,98853.50
2023-02-11T17:41:07.096Z,98859.69
2023-02-11T17:43:35.393Z,98864.34
2023-02-11T17:46:07.612Z,98842.25
2023-02-11T17:48:36.174Z,98887.34
2023-02-11T17:51:04.391Z,98857.09
2023-02-11T17:53:32.770Z,98856.16
2023-02-11T17:56:06.378Z,98845.91
2023-02-11T17:58:34.795Z,98846.94
2023-02-11T18:01:04.441Z,98846.09
2023-02-11T18:03:33.177Z,98853.03
2023-02-11T18:06:02.165Z,98842.88
2023-02-11T18:08:30.701Z,98585.44
2023-02-11T18:10:58.874Z,98848.09
2023-02-11T18:13:27.368Z,98857.69
2023-02-11T18:15:55.843Z,98867.09
2023-02-11T18:18:25.430Z,98850.38
2023-02-11T18:20:58.048Z,98906.22
2023-02-11T18:23:26.282Z,98881.78
2023-02-11T18:25:54.536Z,98885.72
2023-02-11T18:28:23.284Z,98870.84
2023-02-11T18:30:58.612Z,98887.63
2023-02-11T18:33:28.612Z,98883.97
2023-02-11T18:35:56.917Z,98889.34
2023-02-11T18:38:26.289Z,98847.41
2023-02-11T18:40:54.566Z,98869.63
2023-02-11T18:43:22.803Z,98861.09
2023-02-11T18:45:52.073Z,98824.41
2023-02-11T18:48:20.470Z,98853.16
2023-02-11T18:50:50.110Z,98801.44
2023-02-11T18:53:18.244Z,98878.94
2023-02-11T18:55:47.273Z,98869.50
2023-02-11T18:58:15.819Z,98869.47
2023-02-11T19:00:46.343Z,98869.59
2023-02-11T19:03:14.583Z,98848.38
2023-02-11T19:05:43.498Z,98858.66
2023-02-11T19:08:13.608Z,98874.09
2023-02-11T19:10:42.989Z,98896.94
2023-02-11T19:13:11.618Z,98906.44
2023-02-11T19:15:42.740Z,98870.19
2023-02-11T19:18:11.068Z,98915.53
2023-02-11T19:20:40.615Z,98911.88
2023-02-11T19:23:08.903Z,98771.69
2023-02-11T19:25:39.180Z,98912.28
2023-02-11T19:28:07.578Z,98903.47
2023-02-11T19:30:37.841Z,98905.22
2023-02-11T19:33:08.907Z,98906.94
2023-02-11T19:35:38.178Z,98880.81
2023-02-11T19:38:06.773Z,98913.72
2023-02-11T19:40:35.010Z,98893.81
2023-02-11T19:43:04.593Z,98811.38
2023-02-11T19:45:32.934Z,98927.84
2023-02-11T19:48:01.426Z,98922.91
2023-02-11T19:50:29.611Z,98920.19
2023-02-11T19:52:58.024Z,98902.00
2023-02-11T19:55:26.204Z,98930.59
2023-02-11T19:57:54.414Z,98865.59
2023-02-11T20:00:24.227Z,98909.47
2023-02-11T20:02:52.503Z,98905.84
2023-02-11T20:05:20.767Z,98911.69
2023-02-11T20:07:49.052Z,98922.09
2023-02-11T20:10:17.703Z,98922.06
2023-02-11T20:12:46.182Z,98921.94
2023-02-11T20:15:14.724Z,98921.72
2023-02-11T20:17:44.575Z,98906.88
2023-02-11T20:20:13.339Z,98927.72
2023-02-11T20:22:41.648Z,98928.56
2023-02-11T20:25:11.149Z,98914.84
2023-02-11T20:27:39.700Z,98916.84
2023-02-11T20:30:09.314Z,98900.84
2023-02-11T20:32:38.621Z,98821.28
2023-02-11T20:35:11.509Z,98922.53
2023-02-11T20:37:42.278Z,98870.22
2023-02-11T20:40:13.109Z,98917.56
2023-02-11T20:42:41.447Z,98906.75
2023-02-11T20:45:10.507Z,98886.75
2023-02-11T20:47:38.982Z,98922.03
2023-02-11T20:50:10.408Z,98900.66
2023-02-11T20:52:38.621Z,98907.50
2023-02-11T20:55:07.178Z,98885.59
2023-02-11T20:57:35.921Z,98862.13
2023-02-11T21:00:05.018Z,98915.84
2023-02-11T21:02:33.405Z,98915.19
2023-02-11T21:05:01.829Z,98911.31
2023-02-11T21:07:31.584Z,98912.00
2023-02-11T21:10:00.163Z,98906.94
2023-02-11T21:12:28.659Z,98904.47
2023-02-11T21:14:58.112Z,98908.97
2023-02-11T21:17:27.871Z,98892.81
2023-02-11T21:19:56.053Z,98887.97
2023-02-11T21:22:24.624Z,98917.06
2023-02-11T21:24:54.640Z,98926.31
2023-02-11T21:27:23.754Z,98894.97
2023-02-11T21:29:54.644Z,98913.22
2023-02-11T21:32:23.241Z,98904.72
2023-02-11T21:34:55.229Z,98913.28
2023-02-11T21:37:24.070Z,98908.09
2023-02-11T21:39:53.686Z,98911.66
2023-02-11T21:42:21.789Z,98920.41
2023-02-11T21:44:49.987Z,98928.88
2023-02-11T21:47:18.162Z,98906.84
2023-02-11T21:49:46.419Z,98930.75
2023-02-11T21:52:14.679Z,98976.25
2023-02-11T21:54:42.777Z,98923.69
2023-02-11T21:57:12.386Z,98937.28
2023-02-11T21:59:40.653Z,98932.16
2023-02-11T22:02:10.582Z,98937.81
2023-02-11T22:04:38.736Z,98931.78
2023-02-11T22:07:06.908Z,98931.13
2023-02-11T22:09:35.197Z,98945.00
2023-02-11T22:12:03.317Z,98923.09
2023-02-11T22:14:32.970Z,98940.75
2023-02-11T22:17:01.223Z,98936.78
2023-02-11T22:19:29.384Z,98941.94
2023-02-11T22:21:57.580Z,98915.75
2023-02-11T22:24:25.748Z,98940.78
2023-02-11T22:26:53.905Z,98942.53
2023-02-11T22:29:22.094Z,98933.34
2023-02-11T22:31:51.705Z,98945.53
2023-02-11T22:34:19.878Z,98954.13
2023-02-11T22:36:48.195Z,98954.75
2023-02-11T22:39:17.845Z,98941.78
2023-02-11T22:41:47.682Z,98938.63
2023-02-11T22:44:16.501Z,98935.34
2023-02-11T22:46:44.984Z,98956.78
2023-02-11T22:49:16.009Z,98899.47
2023-02-11T22:51:44.582Z,98939.16
2023-02-11T22:54:16.227Z,98961.03
2023-02-11T22:56:44.866Z,98969.63
2023-02-11T22:59:14.995Z,98951.78
2023-02-11T23:01:43.881Z,98965.53
2023-02-11T23:04:17.037Z,98957.91
2023-02-11T23:06:47.570Z,98955.34
2023-02-11T23:09:16.176Z,98950.56
2023-02-11T23:11:44.335Z,98948.53
2023-02-11T23:14:12.750Z,98954.00
2023-02-11T23:16:41.427Z,98956.38
2023-02-11T23:19:12.448Z,98927.59
2023-02-11T23:21:42.189Z,99039.84
2023-02-11T23:24:13.378Z,98944.78
2023-02-11T23:26:42.361Z,98960.72
2023-02-11T23:29:11.149Z,98967.75
2023-02-11T23:31:43.141Z,98975.78
2023-02-11T23:34:11.578Z,98986.19
2023-02-11T23:36:41.368Z,98988.13
2023-02-11T23:39:09.502Z,98993.13
2023-02-11T23:41:37.729Z,98992.03
2023-02-11T23:44:06.125Z,98989.38
2023-02-11T23:46:34.272Z,98988.38
2023-02-11T23:49:02.383Z,99005.44
2023-02-11T23:51:30.555Z,98981.06
2023-02-11T23:54:00.203Z,99002.66
2023-02-11T23:56:29.301Z,98939.47
2023-02-11T23:58:59.444Z,99014.94
